createdAt,value
2018-10-07T00:01:36.140Z,5.23
2018-10-07T00:04:04.519Z,4.77
2018-10-07T00:06:33.151Z,5.40
2018-10-07T00:09:01.328Z,5.03
2018-10-07T00:11:29.565Z,10.90
2018-10-07T00:13:57.724Z,5.60
2018-10-07T00:16:25.926Z,6.27
2018-10-07T00:18:54.014Z,4.80
2018-10-07T00:21:22.132Z,5.30
2018-10-07T00:23:50.326Z,8.70
2018-10-07T00:26:18.588Z,5.17
2018-10-07T00:28:46.729Z,8.00
2018-10-07T00:31:15.032Z,5.33
2018-10-07T00:33:43.219Z,7.93
2018-10-07T00:36:11.388Z,5.57
2018-10-07T00:38:39.498Z,5.33
2018-10-07T00:41:07.761Z,5.90
2018-10-07T00:43:35.952Z,5.87
2018-10-07T00:46:04.287Z,5.03
2018-10-07T00:48:32.535Z,5.10
2018-10-07T00:51:00.876Z,5.87
2018-10-07T00:53:28.951Z,4.87
2018-10-07T00:55:57.200Z,7.20
2018-10-07T00:58:25.387Z,6.07
2018-10-07T01:00:53.514Z,9.43
2018-10-07T01:03:21.637Z,5.57
2018-10-07T01:05:49.836Z,5.60
2018-10-07T01:08:18.072Z,5.20
2018-10-07T01:10:46.257Z,5.10
2018-10-07T01:13:14.390Z,5.80
2018-10-07T01:15:43.559Z,5.00
2018-10-07T01:18:11.703Z,6.83
2018-10-07T01:20:39.897Z,5.30
2018-10-07T01:23:08.279Z,5.03
2018-10-07T01:25:36.421Z,5.50
2018-10-07T01:28:04.587Z,5.13
2018-10-07T01:30:32.823Z,5.40
2018-10-07T01:33:00.924Z,8.60
2018-10-07T01:35:29.055Z,5.50
2018-10-07T01:37:57.179Z,6.77
2018-10-07T01:40:25.414Z,5.27
2018-10-07T01:42:53.578Z,5.53
2018-10-07T01:45:21.700Z,6.27
2018-10-07T01:47:49.867Z,6.10
2018-10-07T01:50:17.993Z,5.83
2018-10-07T01:52:46.218Z,6.27
2018-10-07T01:55:14.318Z,4.53
2018-10-07T01:57:42.415Z,5.47
2018-10-07T02:00:10.576Z,4.53
2018-10-07T02:02:38.710Z,5.73
2018-10-07T02:05:06.886Z,5.43
2018-10-07T02:07:35.202Z,7.43
2018-10-07T02:10:03.306Z,5.10
2018-10-07T02:12:31.473Z,5.63
2018-10-07T02:14:59.591Z,6.20
2018-10-07T02:17:27.857Z,5.43
2018-10-07T02:19:56.140Z,6.53
2018-10-07T02:22:24.350Z,4.87
2018-10-07T02:24:52.506Z,6.70
2018-10-07T02:27:20.519Z,5.20
2018-10-07T02:29:48.664Z,6.73
2018-10-07T02:32:16.891Z,7.33
2018-10-07T02:34:45.023Z,5.63
2018-10-07T02:37:13.185Z,5.67
2018-10-07T02:39:41.372Z,6.87
2018-10-07T02:42:09.497Z,6.00
2018-10-07T02:44:37.693Z,4.73
2018-10-07T02:47:06.390Z,6.20
2018-10-07T02:49:34.510Z,6.30
2018-10-07T02:52:02.649Z,5.30
2018-10-07T02:54:30.885Z,7.53
2018-10-07T02:56:59.076Z,10.13
2018-10-07T02:59:27.560Z,5.33
2018-10-07T03:01:55.685Z,5.00
2018-10-07T03:04:23.923Z,6.57
2018-10-07T03:06:52.125Z,7.23
2018-10-07T03:09:20.194Z,6.43
2018-10-07T03:11:48.383Z,5.17
2018-10-07T03:14:16.543Z,5.87
2018-10-07T03:16:44.762Z,5.00
2018-10-07T03:19:13.068Z,7.90
2018-10-07T03:21:41.260Z,5.80
2018-10-07T03:24:09.464Z,6.50
2018-10-07T03:26:38.011Z,6.20
2018-10-07T03:29:06.546Z,6.00
2018-10-07T03:31:34.718Z,5.53
2018-10-07T03:34:02.985Z,6.57
2018-10-07T03:36:31.108Z,4.90
2018-10-07T03:38:59.274Z,5.80
2018-10-07T03:41:27.637Z,8.70
2018-10-07T03:43:56.009Z,5.63
2018-10-07T03:46:24.201Z,6.53
2018-10-07T03:48:52.366Z,5.17
2018-10-07T03:51:20.629Z,6.23
2018-10-07T03:53:48.766Z,5.20
2018-10-07T03:56:16.884Z,5.97
2018-10-07T03:58:45.008Z,5.10
2018-10-07T04:01:13.440Z,5.77
2018-10-07T04:03:41.743Z,4.97
2018-10-07T04:06:09.920Z,6.77
2018-10-07T04:08:38.165Z,5.67
2018-10-07T04:11:06.692Z,8.13
2018-10-07T04:13:35.008Z,5.10
2018-10-07T04:16:03.339Z,7.27
2018-10-07T04:18:31.573Z,5.07
2018-10-07T04:21:00.169Z,6.87
2018-10-07T04:23:28.341Z,5.17
2018-10-07T04:25:56.564Z,5.57
2018-10-07T04:28:24.636Z,5.33
2018-10-07T04:30:52.819Z,6.83
2018-10-07T04:33:20.884Z,5.57
2018-10-07T04:35:48.895Z,6.53
2018-10-07T04:38:17.065Z,5.57
2018-10-07T04:40:45.205Z,5.80
2018-10-07T04:43:13.268Z,9.00
2018-10-07T04:45:41.276Z,5.37
2018-10-07T04:48:09.717Z,5.73
2018-10-07T04:50:37.830Z,7.00
2018-10-07T04:53:06.548Z,8.07
2018-10-07T04:55:34.697Z,5.93
2018-10-07T04:58:02.734Z,6.43
2018-10-07T05:00:30.805Z,7.83
2018-10-07T05:02:58.898Z,7.37
2018-10-07T05:05:27.399Z,8.20
2018-10-07T05:07:55.636Z,6.70
2018-10-07T05:10:58.778Z,6.70
2018-10-07T05:13:32.366Z,5.83
2018-10-07T05:16:03.002Z,5.73
2018-10-07T05:18:32.235Z,5.40
2018-10-07T05:21:00.762Z,5.47
2018-10-07T05:23:29.058Z,6.00
2018-10-07T05:25:57.385Z,6.77
2018-10-07T05:28:27.806Z,7.50
2018-10-07T05:30:56.449Z,9.43
2018-10-07T05:33:24.983Z,6.60
2018-10-07T05:35:53.206Z,7.53
2018-10-07T05:38:22.078Z,6.63
2018-10-07T05:40:51.503Z,7.53
2018-10-07T05:43:21.092Z,9.13
2018-10-07T05:45:51.616Z,8.67
2018-10-07T05:48:20.073Z,8.77
2018-10-07T05:50:48.820Z,10.57
2018-10-07T05:53:18.112Z,10.53
2018-10-07T05:55:46.852Z,7.77
2018-10-07T05:58:15.679Z,8.27
2018-10-07T06:00:44.852Z,8.13
2018-10-07T06:03:20.882Z,9.53
2018-10-07T06:05:51.152Z,8.50
2018-10-07T06:08:23.227Z,6.53
2018-10-07T06:10:52.337Z,9.27
2018-10-07T06:13:21.066Z,12.63
2018-10-07T06:15:49.748Z,10.27
2018-10-07T06:18:19.189Z,12.87
2018-10-07T06:20:48.286Z,15.50
2018-10-07T06:23:16.957Z,12.27
2018-10-07T06:25:46.354Z,34.70
2018-10-07T06:28:15.397Z,19.27
2018-10-07T06:30:44.484Z,11.70
2018-10-07T06:33:14.880Z,13.30
2018-10-07T06:35:44.040Z,9.87
2018-10-07T06:38:12.738Z,7.97
2018-10-07T06:40:41.793Z,7.47
2018-10-07T06:43:10.542Z,7.77
2018-10-07T06:45:39.213Z,5.17
2018-10-07T06:48:11.569Z,7.33
2018-10-07T06:50:40.782Z,10.90
2018-10-07T06:53:13.163Z,6.60
2018-10-07T06:55:41.774Z,7.67
2018-10-07T06:58:11.065Z,7.90
2018-10-07T07:00:39.710Z,8.07
2018-10-07T07:03:08.542Z,7.97
2018-10-07T07:05:40.183Z,8.23
2018-10-07T07:08:10.809Z,10.07
2018-10-07T07:10:39.473Z,9.07
2018-10-07T07:13:08.000Z,7.50
2018-10-07T07:15:36.439Z,9.97
2018-10-07T07:18:04.978Z,7.20
2018-10-07T07:20:33.417Z,9.10
2018-10-07T07:23:01.754Z,10.30
2018-10-07T07:25:30.152Z,9.03
2018-10-07T07:27:58.608Z,8.77
2018-10-07T07:30:27.266Z,10.77
2018-10-07T07:32:55.978Z,9.60
2018-10-07T07:35:24.358Z,10.73
2018-10-07T07:37:52.967Z,8.13
2018-10-07T07:40:21.388Z,9.97
2018-10-07T07:42:49.799Z,7.43
2018-10-07T07:45:18.325Z,14.47
2018-10-07T07:47:46.757Z,9.57
2018-10-07T07:50:15.335Z,8.40
2018-10-07T07:52:43.963Z,7.27
2018-10-07T07:55:12.506Z,7.43
2018-10-07T07:57:41.103Z,8.53
2018-10-07T08:00:09.594Z,12.13
2018-10-07T08:02:38.991Z,12.43
2018-10-07T08:05:07.552Z,10.77
2018-10-07T08:07:36.450Z,10.53
2018-10-07T08:10:05.609Z,7.23
2018-10-07T08:12:34.843Z,7.83
2018-10-07T08:15:03.656Z,9.67
2018-10-07T08:17:34.253Z,12.87
2018-10-07T08:20:02.835Z,8.03
2018-10-07T08:22:32.414Z,7.93
2018-10-07T08:25:00.961Z,8.63
2018-10-07T08:27:29.752Z,8.30
2018-10-07T08:29:58.092Z,9.73
2018-10-07T08:32:26.443Z,11.13
2018-10-07T08:34:54.791Z,7.50
2018-10-07T08:37:23.166Z,12.93
2018-10-07T08:39:51.422Z,8.67
2018-10-07T08:42:19.811Z,8.17
2018-10-07T08:44:48.124Z,8.37
2018-10-07T08:47:16.582Z,6.77
2018-10-07T08:49:45.111Z,11.37
2018-10-07T08:52:14.044Z,9.13
2018-10-07T08:54:42.433Z,10.87
2018-10-07T08:57:11.369Z,8.83
2018-10-07T08:59:39.993Z,7.60
2018-10-07T09:02:08.481Z,8.70
2018-10-07T09:04:37.171Z,7.57
2018-10-07T09:07:05.403Z,6.30
2018-10-07T09:09:33.669Z,8.73
2018-10-07T09:12:01.975Z,11.47
2018-10-07T09:14:30.573Z,8.00
2018-10-07T09:16:58.971Z,10.30
2018-10-07T09:19:27.386Z,9.67
2018-10-07T09:21:55.789Z,8.37
2018-10-07T09:24:24.221Z,7.43
2018-10-07T09:26:53.027Z,9.63
2018-10-07T09:29:21.622Z,8.33
2018-10-07T09:31:50.879Z,9.63
2018-10-07T09:34:19.476Z,10.83
2018-10-07T09:36:48.011Z,7.63
2018-10-07T09:39:16.443Z,9.03
2018-10-07T09:41:44.927Z,7.63
2018-10-07T09:44:13.462Z,5.73
2018-10-07T09:46:42.081Z,6.50
2018-10-07T09:49:10.780Z,10.17
2018-10-07T09:51:39.142Z,7.40
2018-10-07T09:54:07.503Z,6.87
2018-10-07T09:56:36.274Z,6.07
2018-10-07T09:59:05.597Z,8.00
2018-10-07T10:01:34.512Z,7.37
2018-10-07T10:04:03.080Z,9.50
2018-10-07T10:06:32.071Z,12.77
2018-10-07T10:09:00.813Z,7.00
2018-10-07T10:11:29.324Z,6.30
2018-10-07T10:13:57.671Z,9.97
2018-10-07T10:16:33.684Z,9.30
2018-10-07T10:19:04.419Z,5.93
2018-10-07T10:21:37.722Z,5.23
2018-10-07T10:24:16.403Z,8.43
2018-10-07T10:29:02.102Z,5.57
2018-10-07T10:31:43.096Z,6.40
2018-10-07T10:34:14.731Z,7.57
2018-10-07T10:36:49.941Z,8.20
2018-10-07T10:39:54.459Z,6.03
2018-10-07T10:43:01.549Z,5.10
2018-10-07T10:45:33.535Z,5.13
2018-10-07T10:48:18.778Z,6.30
2018-10-07T10:51:53.166Z,5.47
2018-10-07T10:54:31.503Z,7.53
2018-10-07T10:57:05.484Z,5.23
2018-10-07T10:59:41.828Z,5.73
2018-10-07T11:02:30.005Z,4.40
2018-10-07T11:05:09.508Z,4.47
2018-10-07T11:08:00.176Z,7.03
2018-10-07T11:10:38.173Z,5.10
2018-10-07T11:13:25.182Z,6.60
2018-10-07T11:16:04.560Z,6.30
2018-10-07T11:21:56.222Z,4.47
2018-10-07T11:24:34.828Z,6.20
2018-10-07T11:27:08.948Z,4.67
2018-10-07T11:29:46.316Z,6.37
2018-10-07T11:34:27.139Z,5.30
2018-10-07T11:38:04.305Z,5.30
2018-10-07T11:40:44.806Z,4.13
2018-10-07T11:43:22.677Z,4.27
2018-10-07T11:47:59.053Z,4.63
2018-10-07T11:51:04.084Z,4.27
2018-10-07T11:54:10.465Z,4.10
2018-10-07T11:56:39.246Z,3.33
2018-10-07T11:59:07.817Z,3.90
2018-10-07T12:01:36.463Z,3.37
2018-10-07T12:04:04.969Z,3.40
2018-10-07T12:06:33.436Z,5.37
2018-10-07T12:09:02.096Z,3.53
2018-10-07T12:11:30.494Z,3.07
2018-10-07T12:13:59.007Z,4.27
2018-10-07T12:16:27.777Z,3.20
2018-10-07T12:18:56.573Z,6.33
2018-10-07T12:21:25.582Z,3.10
2018-10-07T12:23:54.453Z,4.47
2018-10-07T12:26:22.931Z,5.97
2018-10-07T12:28:51.431Z,4.00
2018-10-07T12:31:19.657Z,3.10
2018-10-07T12:33:48.826Z,5.00
2018-10-07T12:36:17.595Z,4.67
2018-10-07T12:38:46.273Z,4.93
2018-10-07T12:41:15.119Z,3.30
2018-10-07T12:43:44.540Z,4.47
2018-10-07T12:46:13.294Z,5.20
2018-10-07T12:48:42.597Z,3.30
2018-10-07T12:51:11.707Z,2.53
2018-10-07T12:53:41.055Z,4.37
2018-10-07T12:56:10.561Z,3.20
2018-10-07T12:58:39.994Z,2.40
2018-10-07T13:01:09.813Z,6.00
2018-10-07T13:03:39.739Z,2.57
2018-10-07T13:06:08.845Z,2.57
2018-10-07T13:08:38.264Z,2.57
2018-10-07T13:11:08.211Z,2.50
2018-10-07T13:13:37.929Z,5.67
2018-10-07T13:16:07.114Z,3.23
2018-10-07T13:18:37.251Z,4.00
2018-10-07T13:21:07.656Z,3.67
2018-10-07T13:23:37.184Z,2.60
2018-10-07T13:26:06.186Z,2.30
2018-10-07T13:28:35.750Z,3.83
2018-10-07T13:31:05.334Z,2.87
2018-10-07T13:33:34.481Z,3.47
2018-10-07T13:36:03.887Z,5.50
2018-10-07T13:38:32.710Z,3.40
2018-10-07T13:41:02.049Z,3.40
2018-10-07T13:43:30.923Z,3.80
2018-10-07T13:46:00.206Z,4.67
2018-10-07T13:48:28.918Z,3.43
2018-10-07T13:50:57.670Z,2.97
2018-10-07T13:53:26.570Z,5.23
2018-10-07T13:55:55.272Z,4.20
2018-10-07T13:58:24.908Z,2.47
2018-10-07T14:00:54.105Z,3.97
2018-10-07T14:03:22.643Z,4.40
2018-10-07T14:05:51.268Z,3.93
2018-10-07T14:08:19.781Z,3.63
2018-10-07T14:10:48.288Z,2.83
2018-10-07T14:13:16.971Z,2.73
2018-10-07T14:15:45.854Z,2.63
2018-10-07T14:18:14.058Z,3.30
2018-10-07T14:20:42.319Z,2.30
2018-10-07T14:23:10.627Z,2.20
2018-10-07T14:25:38.941Z,3.13
2018-10-07T14:28:08.341Z,2.70
2018-10-07T14:30:36.625Z,2.40
2018-10-07T14:33:05.207Z,2.73
2018-10-07T14:35:33.305Z,3.83
2018-10-07T14:38:01.670Z,2.70
2018-10-07T14:40:30.008Z,2.60
2018-10-07T14:42:58.209Z,3.50
2018-10-07T14:45:26.426Z,2.90
2018-10-07T14:47:54.999Z,3.00
2018-10-07T14:50:23.272Z,5.50
2018-10-07T14:52:51.541Z,3.13
2018-10-07T14:55:19.881Z,4.63
2018-10-07T14:57:48.147Z,3.70
2018-10-07T15:00:16.439Z,2.73
2018-10-07T15:02:44.679Z,3.57
2018-10-07T15:05:12.743Z,3.33
2018-10-07T15:07:41.062Z,5.37
2018-10-07T15:10:09.769Z,4.67
2018-10-07T15:12:38.503Z,3.33
2018-10-07T15:15:07.072Z,3.87
2018-10-07T15:17:35.431Z,3.80
2018-10-07T15:20:03.797Z,3.73
2018-10-07T15:22:32.355Z,2.43
2018-10-07T15:25:01.674Z,2.80
2018-10-07T15:27:30.090Z,2.90
2018-10-07T15:29:58.536Z,4.17
2018-10-07T15:32:27.229Z,2.30
2018-10-07T15:34:55.667Z,5.00
2018-10-07T15:37:24.044Z,3.53
2018-10-07T15:39:52.693Z,5.03
2018-10-07T15:42:21.226Z,5.40
2018-10-07T15:44:49.659Z,4.70
2018-10-07T15:47:18.257Z,2.97
2018-10-07T15:49:46.741Z,3.87
2018-10-07T15:52:15.035Z,3.57
2018-10-07T15:54:43.801Z,5.37
2018-10-07T15:57:12.303Z,2.83
2018-10-07T15:59:40.756Z,5.03
2018-10-07T16:02:09.348Z,5.70
2018-10-07T16:04:37.740Z,5.63
2018-10-07T16:07:06.314Z,6.50
2018-10-07T16:09:34.587Z,4.60
2018-10-07T16:12:02.898Z,7.37
2018-10-07T16:14:31.400Z,6.00
2018-10-07T16:16:59.971Z,7.20
2018-10-07T16:19:28.412Z,5.00
2018-10-07T16:21:56.912Z,6.97
2018-10-07T16:24:25.343Z,8.20
2018-10-07T16:26:54.181Z,7.50
2018-10-07T16:29:23.008Z,5.33
2018-10-07T16:31:51.647Z,5.30
2018-10-07T16:34:20.080Z,3.53
2018-10-07T16:36:48.485Z,4.07
2018-10-07T16:39:16.998Z,5.03
2018-10-07T16:41:45.502Z,6.97
2018-10-07T16:44:14.065Z,6.77
2018-10-07T16:46:42.416Z,11.67
2018-10-07T16:49:10.970Z,5.53
2018-10-07T16:51:39.428Z,7.17
2018-10-07T16:54:07.794Z,4.20
2018-10-07T16:56:36.347Z,6.57
2018-10-07T16:59:04.870Z,5.33
2018-10-07T17:01:33.255Z,7.00
2018-10-07T17:04:01.647Z,6.33
2018-10-07T17:06:30.233Z,8.33
2018-10-07T17:08:58.820Z,12.13
2018-10-07T17:11:27.183Z,6.57
2018-10-07T17:13:55.664Z,7.33
2018-10-07T17:16:24.211Z,7.27
2018-10-07T17:18:52.891Z,8.73
2018-10-07T17:21:21.411Z,8.60
2018-10-07T17:23:49.805Z,7.27
2018-10-07T17:26:18.249Z,9.80
2018-10-07T17:28:51.139Z,5.97
2018-10-07T17:31:23.512Z,8.57
2018-10-07T17:33:55.171Z,7.03
2018-10-07T17:36:27.328Z,9.47
2018-10-07T17:38:58.375Z,6.93
2018-10-07T17:41:29.772Z,7.13
2018-10-07T17:44:01.137Z,9.23
2018-10-07T17:46:30.179Z,8.63
2018-10-07T17:49:01.478Z,8.70
2018-10-07T17:51:30.581Z,9.27
2018-10-07T17:53:58.925Z,8.30
2018-10-07T17:56:27.259Z,9.00
2018-10-07T17:58:55.700Z,8.23
2018-10-07T18:01:24.155Z,8.77
2018-10-07T18:03:52.390Z,10.33
2018-10-07T18:06:21.217Z,7.77
2018-10-07T18:08:49.964Z,11.00
2018-10-07T18:11:18.730Z,8.67
2018-10-07T18:13:47.385Z,8.63
2018-10-07T18:16:15.792Z,8.20
2018-10-07T18:18:44.354Z,10.13
2018-10-07T18:21:12.980Z,7.83
2018-10-07T18:23:41.334Z,8.03
2018-10-07T18:26:09.712Z,10.40
2018-10-07T18:28:39.082Z,8.90
2018-10-07T18:31:07.777Z,11.70
2018-10-07T18:33:36.330Z,8.43
2018-10-07T18:36:05.096Z,9.07
2018-10-07T18:38:34.386Z,9.83
2018-10-07T18:41:02.783Z,10.63
2018-10-07T18:43:31.285Z,14.77
2018-10-07T18:45:59.581Z,8.90
2018-10-07T18:48:27.868Z,8.67
2018-10-07T18:50:56.159Z,12.23
2018-10-07T18:53:24.318Z,8.53
2018-10-07T18:55:52.488Z,8.80
2018-10-07T18:58:20.898Z,11.87
2018-10-07T19:00:49.083Z,8.20
2018-10-07T19:03:17.279Z,7.00
2018-10-07T19:05:45.613Z,10.37
2018-10-07T19:08:14.528Z,8.47
2018-10-07T19:10:43.296Z,8.60
2018-10-07T19:13:12.239Z,8.53
2018-10-07T19:15:40.538Z,8.73
2018-10-07T19:18:08.673Z,9.37
2018-10-07T19:20:37.885Z,6.73
2018-10-07T19:23:06.300Z,7.10
2018-10-07T19:25:34.503Z,7.10
2018-10-07T19:28:02.863Z,7.53
2018-10-07T19:30:31.617Z,7.63
2018-10-07T19:32:59.969Z,7.03
2018-10-07T19:35:28.183Z,7.07
2018-10-07T19:37:57.327Z,7.23
2018-10-07T19:40:26.322Z,5.67
2018-10-07T19:42:54.869Z,6.07
2018-10-07T19:45:23.434Z,8.27
2018-10-07T19:47:51.921Z,6.47
2018-10-07T19:50:20.126Z,7.43
2018-10-07T19:52:48.954Z,6.90
2018-10-07T19:55:17.294Z,6.93
2018-10-07T19:57:47.883Z,7.93
2018-10-07T20:00:16.256Z,5.17
2018-10-07T20:02:44.636Z,8.37
2018-10-07T20:05:12.887Z,5.83
2018-10-07T20:07:42.064Z,6.93
2018-10-07T20:10:10.222Z,5.87
2018-10-07T20:12:38.415Z,4.80
2018-10-07T20:15:06.649Z,5.83
2018-10-07T20:17:34.712Z,5.93
2018-10-07T20:20:02.869Z,7.13
2018-10-07T20:22:30.985Z,5.17
2018-10-07T20:24:59.111Z,4.27
2018-10-07T20:27:27.282Z,4.53
2018-10-07T20:29:55.591Z,7.53
2018-10-07T20:32:23.846Z,7.20
2018-10-07T20:34:52.035Z,6.40
2018-10-07T20:37:20.134Z,5.90
2018-10-07T20:39:48.270Z,4.37
2018-10-07T20:42:16.459Z,4.73
2018-10-07T20:44:44.502Z,6.23
2018-10-07T20:47:12.589Z,4.10
2018-10-07T20:49:40.721Z,6.17
2018-10-07T20:52:08.947Z,4.43
2018-10-07T20:54:36.923Z,5.50
2018-10-07T20:57:05.005Z,7.57
2018-10-07T20:59:33.097Z,5.87
2018-10-07T21:02:01.217Z,6.47
2018-10-07T21:04:29.682Z,5.00
2018-10-07T21:06:57.890Z,4.73
2018-10-07T21:09:25.959Z,4.73
2018-10-07T21:11:54.133Z,7.07
2018-10-07T21:14:22.187Z,4.77
2018-10-07T21:16:50.245Z,5.70
2018-10-07T21:19:18.273Z,6.23
2018-10-07T21:21:46.521Z,5.00
2018-10-07T21:24:14.726Z,5.60
2018-10-07T21:26:42.777Z,4.80
2018-10-07T21:29:10.846Z,4.60
2018-10-07T21:31:38.948Z,7.47
2018-10-07T21:34:07.184Z,4.53
2018-10-07T21:36:35.219Z,5.20
2018-10-07T21:39:04.495Z,6.80
2018-10-07T21:41:32.603Z,7.27
2018-10-07T21:44:00.628Z,7.77
2018-10-07T21:46:28.811Z,7.47
2018-10-07T21:48:56.864Z,5.60
2018-10-07T21:51:24.921Z,7.20
2018-10-07T21:53:52.923Z,9.30
2018-10-07T21:56:21.000Z,8.10
2018-10-07T21:58:49.178Z,6.07
2018-10-07T22:01:17.295Z,5.70
2018-10-07T22:03:45.479Z,9.37
2018-10-07T22:06:13.728Z,6.20
2018-10-07T22:08:41.882Z,7.70
2018-10-07T22:11:10.046Z,7.77
2018-10-07T22:13:38.225Z,7.97
2018-10-07T22:16:06.387Z,8.30
2018-10-07T22:18:34.594Z,7.00
2018-10-07T22:21:02.714Z,6.43
2018-10-07T22:23:30.910Z,7.23
2018-10-07T22:25:59.236Z,8.80
2018-10-07T22:28:27.417Z,6.43
2018-10-07T22:30:55.472Z,8.13
2018-10-07T22:33:23.510Z,8.13
2018-10-07T22:35:51.598Z,9.93
2018-10-07T22:38:19.573Z,7.87
2018-10-07T22:40:47.881Z,7.60
2018-10-07T22:43:15.976Z,9.20
2018-10-07T22:45:44.008Z,6.20
2018-10-07T22:48:12.099Z,7.47
2018-10-07T22:50:40.178Z,6.37
2018-10-07T22:53:08.202Z,11.53
2018-10-07T22:55:36.285Z,6.80
2018-10-07T22:58:04.317Z,7.27
2018-10-07T23:00:32.500Z,7.80
2018-10-07T23:03:00.513Z,10.53
2018-10-07T23:05:28.766Z,5.53
2018-10-07T23:07:56.841Z,7.53
2018-10-07T23:10:24.844Z,6.93
2018-10-07T23:12:52.905Z,7.60
2018-10-07T23:15:20.926Z,7.87
2018-10-07T23:17:48.980Z,6.43
2018-10-07T23:20:16.996Z,7.40
2018-10-07T23:22:44.981Z,8.77
2018-10-07T23:25:13.037Z,12.83
2018-10-07T23:27:41.148Z,7.00
2018-10-07T23:30:09.203Z,7.23
2018-10-07T23:32:37.293Z,6.63
2018-10-07T23:35:05.333Z,11.73
2018-10-07T23:37:33.487Z,9.70
2018-10-07T23:40:01.725Z,8.67
2018-10-07T23:42:29.749Z,8.50
2018-10-07T23:44:57.995Z,5.93
2018-10-07T23:47:26.034Z,7.27
2018-10-07T23:49:54.086Z,7.50
2018-10-07T23:52:22.512Z,6.93
2018-10-07T23:54:50.651Z,7.33
2018-10-07T23:57:18.678Z,8.40
2018-10-07T23:59:46.981Z,8.67
